Time,TemperatureF,DewpointF,PressureIn,WindDirection,WindDirectionDegrees,WindSpeedMPH,WindSpeedGustMPH,Humidity,HourlyPrecipIn,Conditions,Clouds,dailyrainin,SoftwareType,DateUTC
2013-04-06 00:07:00,-0.7,-12.0,29.75,NE,36,5.0,5.0,59,0.00,,,0.00,weatherlink.com 1.10,2013-04-06 08:07:00,
2013-04-06 00:22:00,0.1,-12.0,29.75,NW,311,1.0,7.0,57,0.00,,,0.00,weatherlink.com 1.10,2013-04-06 08:22:00,
2013-04-06 00:37:00,-0.4,-12.0,29.75,West,274,1.0,3.0,58,0.00,,,0.00,weatherlink.com 1.10,2013-04-06 08:37:00,
2013-04-06 01:07:00,0.0,-12.0,29.74,WNW,295,1.0,4.0,58,0.00,,,0.00,weatherlink.com 1.10,2013-04-06 09:07:00,
2013-04-06 01:22:00,0.5,-12.0,29.74,NNE,29,4.0,6.0,56,0.00,,,0.00,weatherlink.com 1.10,2013-04-06 09:22:00,
2013-04-06 01:37:00,0.4,-12.0,29.74,NNW,343,2.0,5.0,56,0.00,,,0.00,weatherlink.com 1.10,2013-04-06 09:37:00,
2013-04-06 01:52:00,0.0,-12.0,29.73,NNW,339,1.0,5.0,56,0.00,,,0.00,weatherlink.com 1.10,2013-04-06 09:52:00,
2013-04-06 02:07:00,-0.1,-12.0,29.73,NW,307,1.0,3.0,57,0.00,,,0.00,weatherlink.com 1.10,2013-04-06 10:07:00,
2013-04-06 02:22:00,-0.3,-12.0,29.73,NE,39,2.0,4.0,57,0.00,,,0.00,weatherlink.com 1.10,2013-04-06 10:22:00,
2013-04-06 02:37:00,0.2,-12.0,29.72,North,354,1.0,5.0,57,0.00,,,0.00,weatherlink.com 1.10,2013-04-06 10:37:00,
2013-04-06 02:52:00,0.0,-12.0,29.72,North,5,1.0,2.0,57,0.00,,,0.00,weatherlink.com 1.10,2013-04-06 10:52:00,
2013-04-06 03:08:00,-0.7,-13.0,29.71,NNW,334,1.0,3.0,57,0.00,,,0.00,weatherlink.com 1.10,2013-04-06 11:08:00,
2013-04-06 03:23:00,-0.5,-12.0,29.71,NNE,20,4.0,5.0,58,0.00,,,0.00,weatherlink.com 1.10,2013-04-06 11:23:00,
2013-04-06 03:38:00,-0.4,-12.0,29.70,NNW,338,4.0,4.0,57,0.00,,,0.00,weatherlink.com 1.10,2013-04-06 11:38:00,
2013-04-06 03:53:00,-0.3,-12.0,29.70,WNW,301,1.0,5.0,57,0.00,,,0.00,weatherlink.com 1.10,2013-04-06 11:53:00,
2013-04-06 04:08:00,-0.8,-12.0,29.70,WNW,302,1.0,2.0,58,0.00,,,0.00,weatherlink.com 1.10,2013-04-06 12:08:00,
2013-04-06 04:23:00,-0.8,-12.0,29.70,WNW,303,0.0,3.0,58,0.00,,,0.00,weatherlink.com 1.10,2013-04-06 12:23:00,
2013-04-06 04:38:00,-0.7,-12.0,29.70,North,356,1.0,3.0,58,0.00,,,0.00,weatherlink.com 1.10,2013-04-06 12:38:00,
2013-04-06 04:53:00,0.2,-12.0,29.69,NW,323,1.0,7.0,56,0.00,,,0.00,weatherlink.com 1.10,2013-04-06 12:53:00,
2013-04-06 05:08:00,0.6,-12.0,29.69,NNE,12,3.0,8.0,56,0.00,,,0.00,weatherlink.com 1.10,2013-04-06 13:08:00,
2013-04-06 05:23:00,1.0,-12.0,29.69,NE,34,1.0,7.0,55,0.00,,,0.00,weatherlink.com 1.10,2013-04-06 13:23:00,
2013-04-06 06:09:00,0.7,-12.0,29.67,NNW,342,4.0,5.0,55,0.00,,,0.00,weatherlink.com 1.10,2013-04-06 14:09:00,
2013-04-06 06:24:00,0.4,-12.0,29.67,NNW,343,2.0,6.0,56,0.00,,,0.00,weatherlink.com 1.10,2013-04-06 14:24:00,
2013-04-06 06:39:00,0.4,-12.0,29.67,NW,324,2.0,4.0,56,0.00,,,0.00,weatherlink.com 1.10,2013-04-06 14:39:00,
2013-04-06 06:54:00,0.2,-12.0,29.66,NNW,346,0.0,5.0,57,0.00,,,0.00,weatherlink.com 1.10,2013-04-06 14:54:00,
2013-04-06 07:09:00,0.2,-12.0,29.66,NNW,330,1.0,5.0,56,0.00,,,0.00,weatherlink.com 1.10,2013-04-06 15:09:00,
2013-04-06 07:24:00,0.2,-12.0,29.66,NW,305,1.0,3.0,57,0.00,,,0.00,weatherlink.com 1.10,2013-04-06 15:24:00,
2013-04-06 07:39:00,1.5,-11.0,29.66,NW,319,0.0,2.0,55,0.00,,,0.00,weatherlink.com 1.10,2013-04-06 15:39:00,
2013-04-06 08:09:00,3.7,-11.0,29.66,NNW,346,1.0,2.0,51,0.00,,,0.00,weatherlink.com 1.10,2013-04-06 16:09:00,
2013-04-06 08:24:00,4.4,-10.0,29.66,NNW,338,1.0,3.0,51,0.00,,,0.00,weatherlink.com 1.10,2013-04-06 16:24:00,
2013-04-06 08:40:00,4.7,-10.0,29.66,NE,36,1.0,4.0,50,0.00,,,0.00,weatherlink.com 1.10,2013-04-06 16:40:00,
2013-04-06 08:54:00,5.6,-9.0,29.66,NW,318,1.0,3.0,50,0.00,,,0.00,weatherlink.com 1.10,2013-04-06 16:54:00,
2013-04-06 09:09:00,6.5,-9.0,29.65,NNW,343,3.0,4.0,49,0.00,,,0.00,weatherlink.com 1.10,2013-04-06 17:09:00,
2013-04-06 09:25:00,7.0,-9.0,29.65,NE,49,2.0,4.0,48,0.00,,,0.00,weatherlink.com 1.10,2013-04-06 17:25:00,
2013-04-06 09:40:00,8.1,-8.0,29.65,NE,44,2.0,3.0,48,0.00,,,0.00,weatherlink.com 1.10,2013-04-06 17:40:00,
2013-04-06 09:55:00,8.4,-9.0,29.65,ENE,58,1.0,5.0,46,0.00,,,0.00,weatherlink.com 1.10,2013-04-06 17:55:00,
2013-04-06 10:10:00,8.7,-8.0,29.65,East,88,3.0,5.0,46,0.00,,,0.00,weatherlink.com 1.10,2013-04-06 18:10:00,
2013-04-06 10:28:00,9.3,-8.0,29.64,NNW,346,2.0,6.0,46,0.00,,,0.00,weatherlink.com 1.10,2013-04-06 18:28:00,
2013-04-06 10:40:00,10.2,-7.0,29.64,ENE,58,2.0,4.0,45,0.00,,,0.00,weatherlink.com 1.10,2013-04-06 18:40:00,
2013-04-06 10:55:00,11.3,-7.0,29.64,North,359,3.0,7.0,44,0.00,,,0.00,weatherlink.com 1.10,2013-04-06 18:55:00,
2013-04-06 11:10:00,11.9,-6.0,29.64,NE,56,3.0,5.0,44,0.00,,,0.00,weatherlink.com 1.10,2013-04-06 19:10:00,
2013-04-06 11:25:00,12.4,-7.0,29.64,ENE,72,2.0,6.0,42,0.00,,,0.00,weatherlink.com 1.10,2013-04-06 19:25:00,
2013-04-06 11:40:00,12.8,-6.0,29.64,NE,49,3.0,6.0,43,0.00,,,0.00,weatherlink.com 1.10,2013-04-06 19:40:00,
2013-04-06 11:55:00,12.9,-6.0,29.64,NE,53,3.0,7.0,42,0.00,,,0.00,weatherlink.com 1.10,2013-04-06 19:55:00,
2013-04-06 12:10:00,13.5,-6.0,29.64,NE,56,3.0,5.0,41,0.00,,,0.00,weatherlink.com 1.10,2013-04-06 20:10:00,
2013-04-06 12:25:00,14.0,-5.0,29.64,NNE,33,5.0,7.0,42,0.00,,,0.00,weatherlink.com 1.10,2013-04-06 20:25:00,
2013-04-06 12:40:00,13.8,-6.0,29.64,NE,51,2.0,6.0,41,0.00,,,0.00,weatherlink.com 1.10,2013-04-06 20:40:00,
2013-04-06 12:56:00,14.2,-6.0,29.64,East,101,3.0,7.0,40,0.00,,,0.00,weatherlink.com 1.10,2013-04-06 20:56:00,
2013-04-06 13:11:00,14.8,-5.0,29.64,East,84,1.0,8.0,42,0.00,,,0.00,weatherlink.com 1.10,2013-04-06 21:11:00,
2013-04-06 13:41:00,16.3,-4.0,29.64,ENE,64,2.0,8.0,41,0.00,,,0.00,weatherlink.com 1.10,2013-04-06 21:41:00,
2013-04-06 13:56:00,17.2,-5.0,29.63,NNE,19,1.0,7.0,38,0.00,,,0.00,weatherlink.com 1.10,2013-04-06 21:56:00,
2013-04-06 14:26:00,17.3,-3.0,29.63,East,101,3.0,6.0,40,0.00,,,0.00,weatherlink.com 1.10,2013-04-06 22:26:00,
2013-04-06 14:41:00,17.5,-3.0,29.63,East,88,1.0,5.0,40,0.00,,,0.00,weatherlink.com 1.10,2013-04-06 22:41:00,
2013-04-06 14:56:00,18.4,-3.0,29.63,NE,56,1.0,5.0,39,0.00,,,0.00,weatherlink.com 1.10,2013-04-06 22:56:00,
2013-04-06 15:26:00,17.5,-4.0,29.63,NNE,26,2.0,8.0,38,0.00,,,0.00,weatherlink.com 1.10,2013-04-06 23:26:00,
2013-04-06 15:56:00,17.1,-5.0,29.63,NNE,28,4.0,8.0,38,0.00,,,0.00,weatherlink.com 1.10,2013-04-06 23:56:00,
2013-04-06 16:12:00,16.8,-5.0,29.63,NE,40,5.0,10.0,38,0.00,,,0.00,weatherlink.com 1.10,2013-04-07 00:12:00,
2013-04-06 16:27:00,16.5,-6.0,29.63,NE,40,3.0,11.0,37,0.00,,,0.00,weatherlink.com 1.10,2013-04-07 00:27:00,
2013-04-06 16:42:00,16.0,-6.0,29.63,ENE,63,11.0,13.0,38,0.00,,,0.00,weatherlink.com 1.10,2013-04-07 00:42:00,
2013-04-06 16:57:00,16.7,-4.0,29.63,NE,49,7.0,11.0,39,0.00,,,0.00,weatherlink.com 1.10,2013-04-07 00:57:00,
2013-04-06 17:12:00,15.3,-6.0,29.63,NNE,12,2.0,12.0,39,0.00,,,0.00,weatherlink.com 1.10,2013-04-07 01:12:00,
2013-04-06 17:27:00,15.8,-5.0,29.63,North,9,5.0,15.0,39,0.00,,,0.00,weatherlink.com 1.10,2013-04-07 01:27:00,
2013-04-06 17:42:00,15.0,-6.0,29.63,North,11,3.0,14.0,39,0.00,,,0.00,weatherlink.com 1.10,2013-04-07 01:42:00,
2013-04-06 17:57:00,14.0,-6.0,29.64,NNW,330,8.0,13.0,41,0.00,,,0.00,weatherlink.com 1.10,2013-04-07 01:57:00,
2013-04-06 18:12:00,13.4,-6.0,29.64,North,349,4.0,10.0,41,0.00,,,0.00,weatherlink.com 1.10,2013-04-07 02:12:00,
2013-04-06 18:27:00,12.9,-6.0,29.64,NNE,25,3.0,13.0,42,0.00,,,0.00,weatherlink.com 1.10,2013-04-07 02:27:00,
2013-04-06 18:42:00,11.9,-6.0,29.64,North,6,3.0,8.0,44,0.00,,,0.00,weatherlink.com 1.10,2013-04-07 02:42:00,
2013-04-06 18:57:00,11.1,-7.0,29.64,NNE,32,5.0,10.0,45,0.00,,,0.00,weatherlink.com 1.10,2013-04-07 02:57:00,
2013-04-06 19:13:00,10.5,-7.0,29.64,NNE,20,3.0,9.0,46,0.00,,,0.00,weatherlink.com 1.10,2013-04-07 03:13:00,
2013-04-06 19:28:00,10.3,-7.0,29.64,NE,53,4.0,8.0,45,0.00,,,0.00,weatherlink.com 1.10,2013-04-07 03:28:00,
2013-04-06 19:43:00,9.2,-7.0,29.64,NNE,25,3.0,12.0,47,0.00,,,0.00,weatherlink.com 1.10,2013-04-07 03:43:00,
2013-04-06 19:58:00,8.8,-7.0,29.65,NNE,27,4.0,11.0,48,0.00,,,0.00,weatherlink.com 1.10,2013-04-07 03:58:00,
2013-04-06 20:28:00,7.6,-8.0,29.65,ENE,65,3.0,12.0,49,0.00,,,0.00,weatherlink.com 1.10,2013-04-07 04:28:00,
2013-04-06 20:43:00,6.9,-9.0,29.65,NE,46,3.0,11.0,49,0.00,,,0.00,weatherlink.com 1.10,2013-04-07 04:43:00,
2013-04-06 20:58:00,6.6,-9.0,29.66,NE,39,3.0,10.0,50,0.00,,,0.00,weatherlink.com 1.10,2013-04-07 04:58:00,
2013-04-06 21:13:00,6.5,-9.0,29.66,NE,53,3.0,9.0,50,0.00,,,0.00,weatherlink.com 1.10,2013-04-07 05:13:00,
2013-04-06 21:28:00,6.2,-9.0,29.66,NNE,20,2.0,10.0,49,0.00,,,0.00,weatherlink.com 1.10,2013-04-07 05:28:00,
2013-04-06 21:43:00,5.7,-9.0,29.66,ENE,67,8.0,11.0,50,0.00,,,0.00,weatherlink.com 1.10,2013-04-07 05:43:00,